Time;durP1;ratioP1;P1;durP2;ratioP2;P2;SDS_P1;SDS_P2;PMS_P1;PMS_P2;Temp;Humidity;BMP_temperature;BMP_pressure;BME280_temperature;BME280_humidity;BME280_pressure;Samples;Min_cycle;Max_cycle;Signal;HPM_P1;HPM_P2
2021/04/04 00:02:15;;;;;;;8.73;5.77;;;9.90;99.90;;;;;;5070760;28;20226;-73
2021/04/04 00:04:42;;;;;;;8.90;6.53;;;10.10;99.90;;;;;;5070172;28;20591;-73
2021/04/04 00:07:10;;;;;;;7.67;5.10;;;10.00;99.90;;;;;;5070531;28;20202;-73
2021/04/04 00:09:36;;;;;;;8.83;6.97;;;10.00;99.90;;;;;;5070929;28;20591;-73
2021/04/04 00:12:03;;;;;;;11.77;7.77;;;10.10;99.90;;;;;;5069163;28;20206;-72
2021/04/04 00:14:29;;;;;;;7.63;6.97;;;10.20;99.90;;;;;;5070724;28;20221;-70
2021/04/04 00:16:56;;;;;;;10.90;6.57;;;10.00;99.90;;;;;;5069753;28;20562;-69
2021/04/04 00:19:22;;;;;;;12.20;7.33;;;9.80;99.90;;;;;;5070274;28;20673;-68
2021/04/04 00:21:49;;;;;;;12.17;7.00;;;9.80;99.90;;;;;;5069700;28;20226;-70
2021/04/04 00:24:16;;;;;;;9.20;6.53;;;9.80;99.90;;;;;;5070306;28;20213;-68
2021/04/04 00:26:43;;;;;;;10.40;7.60;;;9.80;99.90;;;;;;5070438;28;20202;-70
2021/04/04 00:29:10;;;;;;;7.27;6.57;;;9.80;99.90;;;;;;5068988;28;20549;-69
2021/04/04 00:31:37;;;;;;;9.23;6.40;;;9.70;99.90;;;;;;5070520;28;20202;-72
2021/04/04 00:34:04;;;;;;;10.70;8.07;;;9.70;99.90;;;;;;5069622;28;20237;-73
2021/04/04 00:36:31;;;;;;;17.23;6.80;;;9.60;99.90;;;;;;5061306;28;20206;-73
2021/04/04 00:38:57;;;;;;;8.43;7.53;;;9.60;99.90;;;;;;5069764;28;20260;-72
2021/04/04 00:41:25;;;;;;;9.23;7.27;;;9.50;99.90;;;;;;5069471;28;20717;-72
2021/04/04 00:43:51;;;;;;;8.13;6.63;;;9.50;99.90;;;;;;5069698;28;20206;-72
2021/04/04 00:46:18;;;;;;;9.17;6.67;;;9.40;99.90;;;;;;5070057;28;20205;-69
2021/04/04 00:48:44;;;;;;;7.37;6.67;;;9.30;99.90;;;;;;5069616;28;20209;-72
2021/04/04 00:51:11;;;;;;;9.00;6.27;;;9.10;99.90;;;;;;5070131;28;20209;-71
2021/04/04 00:53:37;;;;;;;8.53;6.70;;;9.20;99.90;;;;;;5070442;28;20206;-71
2021/04/04 00:56:05;;;;;;;13.63;6.13;;;9.30;99.90;;;;;;5069242;28;20751;-72
2021/04/04 00:58:33;;;;;;;9.33;7.07;;;9.40;99.90;;;;;;5069943;28;20285;-73
2021/04/04 01:00:59;;;;;;;7.90;6.90;;;9.60;99.90;;;;;;5069333;28;20234;-73
2021/04/04 01:03:26;;;;;;;10.13;6.77;;;9.60;99.90;;;;;;5069921;28;20256;-72
2021/04/04 01:05:54;;;;;;;11.77;7.80;;;9.60;99.90;;;;;;5069523;28;20206;-72
2021/04/04 01:08:21;;;;;;;8.33;6.50;;;9.60;99.90;;;;;;5069808;28;20207;-72
2021/04/04 01:10:50;;;;;;;8.33;6.40;;;9.50;99.90;;;;;;5069343;28;20307;-71
2021/04/04 01:13:20;;;;;;;9.17;7.13;;;9.60;99.90;;;;;;5069327;28;20230;-72
2021/04/04 01:15:54;;;;;;;7.93;6.23;;;9.60;99.90;;;;;;5069298;28;20206;-71
2021/04/04 01:18:29;;;;;;;9.40;6.80;;;9.40;99.90;;;;;;5069696;28;20200;-71
2021/04/04 01:20:58;;;;;;;8.97;7.57;;;9.00;99.90;;;;;;5069365;28;20218;-71
2021/04/04 01:24:01;;;;;;;8.67;7.87;;;8.80;99.90;;;;;;5072057;28;20213;-72
2021/04/04 01:26:35;;;;;;;10.03;7.30;;;8.80;99.90;;;;;;5073185;28;20206;-72
2021/04/04 01:29:05;;;;;;;9.77;6.17;;;8.80;99.90;;;;;;5072931;28;20199;-72
2021/04/04 01:31:34;;;;;;;7.83;6.40;;;8.80;99.90;;;;;;5073332;28;20256;-72
2021/04/04 01:34:01;;;;;;;10.10;6.30;;;9.10;99.90;;;;;;5072834;28;20251;-72
2021/04/04 01:36:31;;;;;;;14.30;7.30;;;9.00;99.90;;;;;;5073018;28;20207;-72
2021/04/04 01:38:59;;;;;;;8.60;7.30;;;8.80;99.90;;;;;;5072781;28;20214;-72
2021/04/04 01:41:28;;;;;;;9.83;6.90;;;8.70;99.90;;;;;;5072853;28;20231;-72
2021/04/04 01:43:59;;;;;;;8.73;6.83;;;8.80;99.90;;;;;;5072575;28;20206;-72
2021/04/04 01:46:27;;;;;;;11.67;7.30;;;8.90;99.90;;;;;;5072894;28;20213;-72
2021/04/04 01:48:55;;;;;;;7.60;6.73;;;9.00;99.90;;;;;;5072543;28;20578;-72
2021/04/04 01:51:23;;;;;;;14.97;8.27;;;8.90;99.90;;;;;;5072521;28;20213;-73
2021/04/04 01:53:51;;;;;;;12.10;8.50;;;8.90;99.90;;;;;;5072297;28;20206;-71
2021/04/04 01:56:19;;;;;;;12.53;8.47;;;8.70;99.90;;;;;;5072560;28;20705;-72
2021/04/04 01:58:46;;;;;;;12.43;8.63;;;8.60;99.90;;;;;;5072614;28;20214;-72
2021/04/04 02:01:13;;;;;;;12.30;7.90;;;8.70;99.90;;;;;;5073081;28;20229;-72
2021/04/04 02:03:42;;;;;;;10.63;7.60;;;8.60;99.90;;;;;;5072920;28;20206;-72
2021/04/04 02:06:11;;;;;;;14.57;8.20;;;8.70;99.90;;;;;;5072937;28;20202;-72
2021/04/04 02:08:39;;;;;;;11.87;8.20;;;8.60;99.90;;;;;;5072464;28;20203;-72
2021/04/04 02:11:06;;;;;;;12.57;9.77;;;8.40;99.90;;;;;;5072644;28;20581;-72
2021/04/04 02:13:35;;;;;;;13.70;8.83;;;8.50;99.90;;;;;;5072217;28;20206;-71
2021/04/04 02:16:05;;;;;;;13.33;9.37;;;8.60;99.90;;;;;;5072333;28;20217;-71
2021/04/04 02:18:31;;;;;;;10.30;8.90;;;8.50;99.90;;;;;;5072374;28;20210;-71
2021/04/04 02:21:00;;;;;;;13.50;9.40;;;8.50;99.90;;;;;;5072080;28;20230;-71
2021/04/04 02:23:28;;;;;;;14.17;10.17;;;8.40;99.90;;;;;;5072095;28;20206;-71
2021/04/04 02:25:55;;;;;;;11.27;9.10;;;8.30;99.90;;;;;;5071616;28;20739;-70
2021/04/04 02:28:22;;;;;;;12.40;8.83;;;8.40;99.90;;;;;;5072413;28;20202;-69
2021/04/04 02:30:49;;;;;;;10.83;8.47;;;9.10;99.90;;;;;;5070389;28;20210;-69
2021/04/04 02:33:23;;;;;;;10.90;8.30;;;9.00;99.90;;;;;;5072126;28;20684;-69
2021/04/04 02:35:54;;;;;;;11.50;8.47;;;8.30;99.90;;;;;;5071008;28;20236;-69
2021/04/04 02:38:29;;;;;;;14.03;8.87;;;8.30;99.90;;;;;;5071870;28;20198;-70
2021/04/04 02:40:58;;;;;;;12.77;8.93;;;8.30;99.90;;;;;;5064530;28;20241;-71
2021/04/04 02:43:29;;;;;;;10.67;8.70;;;8.40;99.90;;;;;;5071507;28;20213;-71
2021/04/04 02:45:57;;;;;;;10.90;8.30;;;8.40;99.90;;;;;;5071783;28;20274;-71
2021/04/04 02:48:29;;;;;;;12.77;8.13;;;8.40;99.90;;;;;;5071494;28;20278;-71
2021/04/04 02:51:01;;;;;;;20.67;10.30;;;8.20;99.90;;;;;;5071324;28;20213;-71
2021/04/04 02:53:32;;;;;;;18.67;9.13;;;8.20;99.90;;;;;;5071635;28;20210;-72
2021/04/04 02:56:01;;;;;;;14.43;9.67;;;8.30;99.90;;;;;;5071197;28;20688;-71
2021/04/04 02:58:28;;;;;;;17.00;9.00;;;8.40;99.90;;;;;;5071086;28;20683;-72
2021/04/04 03:00:57;;;;;;;17.13;9.83;;;8.30;99.90;;;;;;5071422;28;20260;-72
2021/04/04 03:03:27;;;;;;;11.17;9.40;;;8.00;99.90;;;;;;5071442;28;20207;-71
2021/04/04 03:05:57;;;;;;;13.80;8.87;;;7.90;99.90;;;;;;5070704;28;20202;-72
2021/04/04 03:08:24;;;;;;;12.33;9.93;;;8.00;99.90;;;;;;5071030;28;20594;-71
2021/04/04 03:10:53;;;;;;;11.17;9.13;;;8.20;99.90;;;;;;5071360;28;20229;-72
2021/04/04 03:13:22;;;;;;;20.40;10.13;;;8.20;99.90;;;;;;5070871;28;20213;-71
2021/04/04 03:15:51;;;;;;;15.83;10.43;;;8.00;99.90;;;;;;5070904;28;20585;-71
2021/04/04 03:18:18;;;;;;;15.47;10.67;;;7.70;99.90;;;;;;5071036;28;20206;-71
2021/04/04 03:20:46;;;;;;;13.70;9.90;;;7.70;99.90;;;;;;5070438;28;20206;-71
2021/04/04 03:23:16;;;;;;;11.40;10.10;;;7.50;99.90;;;;;;5071337;28;20228;-71
2021/04/04 03:25:44;;;;;;;12.93;10.47;;;7.70;99.90;;;;;;5070972;28;20272;-71
2021/04/04 03:28:12;;;;;;;12.73;8.83;;;7.90;99.90;;;;;;5071582;28;20217;-71
2021/04/04 03:30:45;;;;;;;14.90;9.77;;;7.90;99.90;;;;;;5071230;28;20232;-71
2021/04/04 03:33:13;;;;;;;13.47;10.70;;;7.90;99.90;;;;;;5070835;28;20662;-73
2021/04/04 03:35:41;;;;;;;13.63;10.07;;;7.80;99.90;;;;;;5070749;28;20210;-72
2021/04/04 03:38:10;;;;;;;11.50;10.03;;;7.70;99.90;;;;;;5070848;28;20199;-72
2021/04/04 03:40:37;;;;;;;12.07;10.23;;;7.70;99.90;;;;;;5071222;28;20210;-72
2021/04/04 03:43:09;;;;;;;13.90;9.93;;;7.60;99.90;;;;;;5070328;28;20241;-72
2021/04/04 03:45:36;;;;;;;10.63;8.63;;;7.50;99.90;;;;;;5070179;28;20214;-72
2021/04/04 03:48:04;;;;;;;16.47;9.93;;;7.60;99.90;;;;;;5069669;28;20252;-72
2021/04/04 03:50:33;;;;;;;15.47;10.10;;;7.50;99.90;;;;;;5070494;28;20267;-72
2021/04/04 03:52:59;;;;;;;16.57;10.03;;;7.60;99.90;;;;;;5069995;28;20666;-72
2021/04/04 03:55:29;;;;;;;15.57;9.63;;;7.20;99.90;;;;;;5070545;28;20279;-71
2021/04/04 03:57:56;;;;;;;13.47;10.90;;;7.10;99.90;;;;;;5070126;28;20210;-71
2021/04/04 04:00:27;;;;;;;14.53;9.87;;;7.20;99.90;;;;;;5070368;28;20672;-72
2021/04/04 04:02:55;;;;;;;21.00;9.43;;;7.20;99.90;;;;;;5070119;28;20234;-71
2021/04/04 04:05:24;;;;;;;15.63;10.00;;;7.30;99.90;;;;;;5070454;28;20271;-72
2021/04/04 04:07:52;;;;;;;15.97;10.33;;;7.40;99.90;;;;;;5070170;28;20217;-71
2021/04/04 04:10:20;;;;;;;13.73;11.00;;;7.50;99.90;;;;;;5070485;28;20289;-72
2021/04/04 04:12:47;;;;;;;15.27;10.53;;;7.40;99.90;;;;;;5069900;28;20205;-72
2021/04/04 04:15:14;;;;;;;19.47;10.80;;;7.40;99.90;;;;;;5070386;28;20206;-72
2021/04/04 04:17:42;;;;;;;13.43;10.83;;;7.40;99.90;;;;;;5070422;28;20202;-72
2021/04/04 04:20:12;;;;;;;14.27;10.57;;;7.40;99.90;;;;;;5070421;28;20677;-71
2021/04/04 04:22:39;;;;;;;14.67;10.33;;;7.50;99.90;;;;;;5070635;28;20261;-71
2021/04/04 04:25:07;;;;;;;13.83;9.50;;;7.50;99.90;;;;;;5070200;28;20751;-70
2021/04/04 04:27:35;;;;;;;19.47;11.70;;;7.40;99.90;;;;;;5070320;28;20206;-70
2021/04/04 04:30:05;;;;;;;18.27;11.83;;;7.40;99.90;;;;;;5069903;28;20202;-71
2021/04/04 04:32:34;;;;;;;15.17;11.60;;;7.30;99.90;;;;;;5068732;28;20218;-71
2021/04/04 04:35:02;;;;;;;14.23;11.60;;;7.30;99.90;;;;;;5069957;28;20217;-71
2021/04/04 04:37:30;;;;;;;14.33;12.00;;;7.40;99.90;;;;;;5068630;28;20278;-71
2021/04/04 04:39:59;;;;;;;16.43;11.63;;;7.40;99.90;;;;;;5069855;28;20206;-71
2021/04/04 04:42:26;;;;;;;16.97;13.03;;;7.30;99.90;;;;;;5069947;28;20282;-71
2021/04/04 04:44:53;;;;;;;15.60;12.73;;;7.30;99.90;;;;;;5069680;28;20625;-70
2021/04/04 04:47:20;;;;;;;18.20;13.63;;;7.30;99.90;;;;;;5069630;28;20248;-70
2021/04/04 04:49:46;;;;;;;14.47;11.57;;;7.40;99.90;;;;;;5069716;28;20207;-70
2021/04/04 04:52:14;;;;;;;17.17;12.33;;;7.30;99.90;;;;;;5070167;28;20210;-69
2021/04/04 04:54:42;;;;;;;14.37;11.77;;;7.20;99.90;;;;;;5070257;28;20649;-70
2021/04/04 04:57:09;;;;;;;19.47;13.67;;;7.30;99.90;;;;;;5070238;28;20257;-71
2021/04/04 04:59:37;;;;;;;14.47;11.57;;;7.30;99.90;;;;;;5073463;28;20210;-69
2021/04/04 05:02:05;;;;;;;16.13;12.07;;;6.80;99.90;;;;;;5073456;28;20252;-69
2021/04/04 05:04:31;;;;;;;17.43;10.97;;;7.20;99.90;;;;;;5073778;28;20210;-71
2021/04/04 05:06:58;;;;;;;21.93;12.17;;;8.80;99.90;;;;;;5073347;28;20217;-72
2021/04/04 05:09:25;;;;;;;19.87;14.37;;;7.30;99.90;;;;;;5073559;28;20304;-72
2021/04/04 05:11:53;;;;;;;18.37;13.00;;;7.00;99.90;;;;;;5072941;28;20206;-72
2021/04/04 05:14:19;;;;;;;19.27;13.67;;;6.90;99.90;;;;;;5073602;28;20217;-72
2021/04/04 05:16:47;;;;;;;18.07;12.97;;;6.90;99.90;;;;;;5072965;28;20202;-70
2021/04/04 05:19:14;;;;;;;16.80;13.40;;;7.10;99.90;;;;;;5073541;28;20600;-71
2021/04/04 05:21:42;;;;;;;17.03;14.20;;;7.00;99.90;;;;;;5073365;28;20607;-72
2021/04/04 05:24:11;;;;;;;19.60;13.13;;;7.00;99.90;;;;;;5073639;28;20213;-71
2021/04/04 05:26:39;;;;;;;21.40;14.60;;;7.10;99.90;;;;;;5073771;28;20271;-71
2021/04/04 05:29:09;;;;;;;16.60;13.27;;;7.10;99.90;;;;;;5072510;28;20202;-71
2021/04/04 05:31:45;;;;;;;18.17;14.27;;;7.00;99.90;;;;;;5071589;28;20210;-71
2021/04/04 05:34:13;;;;;;;21.73;13.40;;;6.90;99.90;;;;;;5072405;28;20202;-71
2021/04/04 05:36:47;;;;;;;19.53;14.13;;;6.80;99.90;;;;;;5073249;28;20216;-69
2021/04/04 05:39:16;;;;;;;19.97;13.73;;;6.80;99.90;;;;;;5072469;28;20209;-71
2021/04/04 05:41:47;;;;;;;21.33;14.97;;;6.80;99.90;;;;;;5073094;28;20257;-73
2021/04/04 05:44:18;;;;;;;21.23;12.83;;;6.90;99.90;;;;;;5072824;28;20198;-75
2021/04/04 05:46:52;;;;;;;21.63;15.47;;;6.80;99.90;;;;;;5072299;28;20241;-76
2021/04/04 05:49:29;;;;;;;21.47;13.43;;;7.00;99.90;;;;;;5072496;28;20262;-71
2021/04/04 05:52:04;;;;;;;19.17;12.57;;;7.60;99.90;;;;;;5072334;28;20209;-72
2021/04/04 05:55:13;;;;;;;17.30;13.17;;;7.10;99.90;;;;;;5069528;28;20263;-74
2021/04/04 05:57:48;;;;;;;24.57;14.60;;;7.10;99.90;;;;;;5067862;28;20235;-73
2021/04/04 06:00:18;;;;;;;19.73;13.07;;;7.30;99.90;;;;;;5072803;28;20197;-81
2021/04/04 06:03:24;;;;;;;20.60;13.70;;;7.20;99.90;;;;;;5072074;28;20614;-82
2021/04/04 06:06:02;;;;;;;18.00;14.53;;;7.40;99.90;;;;;;5072973;28;20206;-85
2021/04/04 06:08:43;;;;;;;15.67;13.63;;;7.10;99.90;;;;;;5072884;28;20206;-86
2021/04/04 06:11:18;;;;;;;17.33;13.73;;;7.00;99.90;;;;;;5073064;28;20206;-81
2021/04/04 06:13:56;;;;;;;17.10;12.37;;;7.80;99.90;;;;;;5071982;28;20576;-83
2021/04/04 06:16:41;;;;;;;20.00;14.03;;;7.30;99.90;;;;;;5072786;28;20214;-82
2021/04/04 06:19:23;;;;;;;19.87;12.43;;;7.60;99.90;;;;;;5072730;28;20658;-87
2021/04/04 06:21:57;;;;;;;19.80;13.53;;;7.70;99.90;;;;;;5071152;28;20374;-81
2021/04/04 06:24:33;;;;;;;20.83;14.77;;;7.70;99.90;;;;;;5071896;28;20232;-79
2021/04/04 06:27:07;;;;;;;15.50;12.80;;;7.90;99.90;;;;;;5071629;28;20194;-77
2021/04/04 06:29:44;;;;;;;18.17;12.50;;;7.70;99.90;;;;;;5072130;28;20575;-77
2021/04/04 06:32:17;;;;;;;29.80;13.97;;;7.80;99.90;;;;;;5071669;28;20206;-76
2021/04/04 06:34:48;;;;;;;15.67;14.07;;;7.70;99.90;;;;;;5071250;28;20212;-77
2021/04/04 06:37:33;;;;;;;23.40;13.60;;;7.80;99.90;;;;;;5071775;28;20233;-75
2021/04/04 06:40:06;;;;;;;20.50;14.47;;;7.90;99.90;;;;;;5069855;28;20703;-76
2021/04/04 06:42:47;;;;;;;18.63;13.13;;;7.80;99.90;;;;;;5071922;28;20233;-76
2021/04/04 06:45:23;;;;;;;16.80;11.93;;;8.00;99.90;;;;;;5071541;28;20228;-76
2021/04/04 06:48:05;;;;;;;20.43;12.30;;;8.00;99.90;;;;;;5071216;28;20576;-77
2021/04/04 06:50:37;;;;;;;15.20;11.27;;;7.80;99.90;;;;;;5072097;28;20210;-76
2021/04/04 06:53:19;;;;;;;21.10;14.30;;;7.80;99.90;;;;;;5071283;28;20576;-76
2021/04/04 06:55:54;;;;;;;20.70;12.87;;;8.10;99.90;;;;;;5071349;28;20206;-76
2021/04/04 06:58:33;;;;;;;16.57;11.47;;;8.10;99.90;;;;;;5071624;28;20294;-76
2021/04/04 07:01:10;;;;;;;15.53;11.90;;;8.00;99.90;;;;;;5071139;28;20206;-76
2021/04/04 07:03:46;;;;;;;15.53;11.93;;;8.10;99.90;;;;;;5059143;28;20213;-77
2021/04/04 07:06:53;;;;;;;16.50;9.90;;;8.00;99.90;;;;;;5071535;28;20267;-77
2021/04/04 07:09:44;;;;;;;17.53;11.43;;;7.90;99.90;;;;;;5059625;28;20280;-81
2021/04/04 07:12:24;;;;;;;14.73;11.23;;;8.10;99.90;;;;;;5071315;28;20673;-75
2021/04/04 07:15:06;;;;;;;15.13;11.93;;;8.30;99.90;;;;;;5070948;28;20202;-80
2021/04/04 07:17:58;;;;;;;15.90;10.90;;;8.40;99.90;;;;;;5071408;28;20580;-80
2021/04/04 07:20:42;;;;;;;21.27;10.47;;;8.40;99.90;;;;;;5070659;28;20681;-79
2021/04/04 07:23:39;;;;;;;14.60;10.10;;;8.50;99.90;;;;;;5071508;28;20294;-79
2021/04/04 07:26:18;;;;;;;14.03;10.27;;;8.80;99.90;;;;;;5070856;28;20424;-80
2021/04/04 07:29:00;;;;;;;16.03;11.27;;;9.10;99.90;;;;;;5070382;28;20198;-79
2021/04/04 07:31:32;;;;;;;18.17;11.10;;;9.10;99.90;;;;;;5071367;28;20225;-81
2021/04/04 07:34:07;;;;;;;18.77;10.00;;;9.10;99.90;;;;;;5070762;28;20198;-81
2021/04/04 07:36:44;;;;;;;11.60;8.30;;;9.20;99.90;;;;;;5071240;28;20206;-80
2021/04/04 07:39:29;;;;;;;18.07;10.37;;;9.40;99.90;;;;;;5066543;28;20202;-77
2021/04/04 07:41:58;;;;;;;13.93;9.13;;;;;;;;;;5065705;28;20218;-81
2021/04/04 07:44:32;;;;;;;15.47;10.03;;;10.60;99.90;;;;;;5070484;28;20214;-80
2021/04/04 07:47:11;;;;;;;10.43;8.43;;;9.80;99.90;;;;;;5069995;28;20210;-81
2021/04/04 07:49:40;;;;;;;10.23;7.90;;;10.00;99.90;;;;;;5070672;28;20300;-82
2021/04/04 07:52:16;;;;;;;12.23;8.57;;;9.90;99.90;;;;;;5070965;28;20296;-81
2021/04/04 07:55:01;;;;;;;9.50;7.47;;;10.00;99.90;;;;;;5070453;28;20201;-82
2021/04/04 07:57:37;;;;;;;9.97;7.67;;;10.10;99.90;;;;;;5068657;28;20210;-81
2021/04/04 08:00:07;;;;;;;8.80;7.40;;;10.10;99.90;;;;;;5070102;28;20198;-79
2021/04/04 08:02:43;;;;;;;13.63;7.00;;;10.30;99.90;;;;;;5070321;28;20796;-79
2021/04/04 08:05:13;;;;;;;10.20;6.67;;;10.40;99.90;;;;;;5070654;28;20251;-80
2021/04/04 08:07:49;;;;;;;8.20;6.33;;;10.30;99.90;;;;;;5071034;28;20275;-80
2021/04/04 08:10:23;;;;;;;6.23;5.67;;;11.20;99.90;;;;;;5070276;28;20201;-82
2021/04/04 08:12:57;;;;;;;8.97;5.20;;;10.70;99.90;;;;;;5070028;28;20202;-82
2021/04/04 08:15:28;;;;;;;10.53;6.07;;;10.70;99.90;;;;;;5070508;28;20209;-82
2021/04/04 08:17:55;;;;;;;7.40;5.87;;;10.90;99.90;;;;;;5068770;28;20203;-83
2021/04/04 08:20:24;;;;;;;9.80;6.20;;;11.00;99.90;;;;;;5069382;28;20224;-81
2021/04/04 08:23:01;;;;;;;7.90;6.00;;;11.30;99.90;;;;;;5067730;28;20229;-81
2021/04/04 08:25:35;;;;;;;9.90;6.00;;;11.30;99.90;;;;;;5069914;28;20197;-80
2021/04/04 08:28:07;;;;;;;7.87;4.83;;;11.50;99.90;;;;;;5070266;28;20201;-82
2021/04/04 08:30:39;;;;;;;7.17;5.20;;;11.90;99.90;;;;;;5070068;28;20217;-81
2021/04/04 08:33:14;;;;;;;8.30;5.63;;;11.80;99.90;;;;;;5064642;28;20202;-78
2021/04/04 08:35:43;;;;;;;7.50;4.80;;;12.20;99.90;;;;;;5072611;28;20255;-80
2021/04/04 08:38:17;;;;;;;9.20;5.80;;;12.50;99.90;;;;;;5073151;28;20201;-80
2021/04/04 08:40:45;;;;;;;9.63;7.10;;;12.50;99.90;;;;;;5071220;28;20221;-80
2021/04/04 08:43:14;;;;;;;9.07;5.17;;;12.50;99.90;;;;;;5072293;28;20233;-80
2021/04/04 08:45:48;;;;;;;9.73;5.20;;;12.80;99.90;;;;;;5071447;28;20670;-82
2021/04/04 08:48:16;;;;;;;6.80;5.30;;;13.00;99.90;;;;;;5071825;28;20213;-80
2021/04/04 08:50:44;;;;;;;7.73;4.63;;;14.00;99.90;;;;;;5065352;28;20213;-77
2021/04/04 08:53:26;;;;;;;6.63;4.93;;;15.00;99.90;;;;;;5070822;28;20202;-68
2021/04/04 08:55:54;;;;;;;6.57;5.30;;;18.00;99.90;;;;;;5066086;28;20335;-71
2021/04/04 08:58:25;;;;;;;8.50;5.00;;;18.10;99.90;;;;;;5072634;28;20209;-76
2021/04/04 09:00:56;;;;;;;7.72;5.07;;;17.20;99.90;;;;;;5073543;28;20202;-76
2021/04/04 09:03:25;;;;;;;7.50;5.80;;;17.10;99.90;;;;;;5073498;28;20222;-72
2021/04/04 09:06:00;;;;;;;5.00;4.43;;;17.50;99.90;;;;;;5073397;28;20210;-72
2021/04/04 09:08:28;;;;;;;13.57;4.90;;;16.70;99.90;;;;;;5071703;28;20205;-72
2021/04/04 09:10:56;;;;;;;5.68;4.20;;;16.70;99.90;;;;;;5067523;28;20198;-72
2021/04/04 09:13:23;;;;;;;6.53;5.45;;;15.70;99.90;;;;;;5066069;28;20214;-74
2021/04/04 09:15:52;;;;;;;8.10;4.85;;;15.00;99.90;;;;;;5072795;28;20206;-76
2021/04/04 09:18:19;;;;;;;8.18;4.68;;;15.40;99.90;;;;;;5072873;28;20682;-77
2021/04/04 09:20:47;;;;;;;6.10;4.50;;;15.00;99.90;;;;;;5073201;28;20206;-76
2021/04/04 09:23:15;;;;;;;7.47;3.80;;;14.50;99.90;;;;;;5072665;28;20713;-76
2021/04/04 09:25:50;;;;;;;7.15;5.28;;;15.50;99.90;;;;;;5060452;28;20206;-77
2021/04/04 09:28:18;;;;;;;7.65;5.40;;;15.40;99.90;;;;;;5072010;28;20716;-79
2021/04/04 09:30:46;;;;;;;5.32;4.82;;;15.40;99.90;;;;;;5071599;28;20218;-79
2021/04/04 09:33:16;;;;;;;5.47;4.55;;;15.20;99.90;;;;;;5073241;28;20225;-80
2021/04/04 09:35:43;;;;;;;3.88;3.47;;;17.30;99.90;;;;;;5072939;28;20234;-78
2021/04/04 09:38:12;;;;;;;6.60;5.03;;;19.80;99.90;;;;;;5073102;28;20213;-80
2021/04/04 09:40:40;;;;;;;8.77;3.83;;;21.10;99.90;;;;;;5073181;28;20206;-77
2021/04/04 09:43:09;;;;;;;4.68;4.13;;;18.40;99.90;;;;;;5072820;28;20649;-78
2021/04/04 09:45:37;;;;;;;4.95;4.50;;;20.60;99.90;;;;;;5073307;28;20209;-77
2021/04/04 09:48:19;;;;;;;5.47;4.82;;;19.50;99.90;;;;;;5072369;28;20221;-77
2021/04/04 09:50:46;;;;;;;6.78;5.20;;;18.40;99.90;;;;;;5070838;28;20268;-75
2021/04/04 09:53:13;;;;;;;5.13;3.97;;;21.00;99.90;;;;;;5066511;28;20205;-77
2021/04/04 09:55:45;;;;;;;6.82;5.65;;;23.50;99.90;;;;;;5071922;28;20284;-73
2021/04/04 09:58:28;;;;;;;6.10;4.88;;;25.50;99.90;;;;;;5071925;28;20705;-72
2021/04/04 10:00:55;;;;;;;6.32;4.65;;;24.30;99.90;;;;;;5072386;28;20202;-72
2021/04/04 10:03:22;;;;;;;5.45;4.10;;;24.80;99.90;;;;;;5070778;28;20234;-68
2021/04/04 10:05:50;;;;;;;6.25;4.55;;;25.20;99.90;;;;;;5070887;28;20670;-73
2021/04/04 10:08:18;;;;;;;5.22;4.75;;;24.70;99.90;;;;;;5062632;28;20199;-72
2021/04/04 10:10:45;;;;;;;5.57;3.97;;;25.10;99.90;;;;;;5065982;28;20218;-72
2021/04/04 10:13:13;;;;;;;6.43;3.78;;;24.40;99.90;;;;;;5071722;28;20217;-71
2021/04/04 10:15:45;;;;;;;6.40;4.50;;;25.00;99.90;;;;;;5071957;28;20210;-71
2021/04/04 10:18:13;;;;;;;5.15;4.65;;;25.20;99.90;;;;;;5070982;28;20206;-71
2021/04/04 10:20:44;;;;;;;6.45;4.82;;;24.80;99.90;;;;;;5072178;28;20229;-71
2021/04/04 10:23:11;;;;;;;4.05;3.60;;;24.80;99.90;;;;;;5072076;28;20238;-72
2021/04/04 10:25:38;;;;;;;5.57;4.07;;;24.10;99.90;;;;;;5071990;28;20210;-70
2021/04/04 10:28:07;;;;;;;6.22;4.30;;;24.80;99.90;;;;;;5071706;28;20206;-71
2021/04/04 10:30:36;;;;;;;5.60;4.63;;;25.30;99.90;;;;;;5071525;28;20205;-72
2021/04/04 10:33:21;;;;;;;5.63;4.00;;;25.30;99.90;;;;;;5064870;28;20206;-73
2021/04/04 10:35:47;;;;;;;5.70;3.95;;;21.80;99.90;;;;;;5071288;28;20214;-72
2021/04/04 10:38:16;;;;;;;5.35;4.05;;;18.00;99.90;;;;;;5071971;28;20206;-70
2021/04/04 10:40:45;;;;;;;7.45;4.28;;;16.70;99.90;;;;;;5071752;28;20210;-70
2021/04/04 10:43:12;;;;;;;6.00;4.53;;;16.70;99.90;;;;;;5071905;28;20230;-70
2021/04/04 10:46:07;;;;;;;5.07;3.65;;;16.40;99.90;;;;;;5071801;28;20235;-70
2021/04/04 10:48:37;;;;;;;4.95;4.13;;;16.40;99.90;;;;;;5071323;28;20291;-71
2021/04/04 10:51:05;;;;;;;7.55;4.10;;;16.40;99.90;;;;;;5066500;28;20214;-71
2021/04/04 10:53:31;;;;;;;4.97;4.03;;;16.00;99.90;;;;;;5071369;28;20213;-71
2021/04/04 10:55:58;;;;;;;4.03;3.72;;;16.00;99.90;;;;;;5070389;28;20214;-71
2021/04/04 10:58:26;;;;;;;5.57;3.85;;;16.10;99.90;;;;;;5067435;28;20213;-71
2021/04/04 11:00:53;;;;;;;6.25;3.40;;;15.90;99.90;;;;;;5070894;28;20210;-71
2021/04/04 11:03:21;;;;;;;5.30;3.58;;;15.90;99.90;;;;;;5071170;28;20226;-71
2021/04/04 11:05:48;;;;;;;4.93;3.47;;;16.20;99.90;;;;;;5070609;28;20218;-70
2021/04/04 11:08:16;;;;;;;6.03;3.70;;;16.50;99.90;;;;;;5071424;28;20198;-73
2021/04/04 11:10:43;;;;;;;4.57;4.03;;;16.30;99.90;;;;;;5071447;28;20214;-70
2021/04/04 11:13:09;;;;;;;6.90;3.58;;;16.30;99.90;;;;;;5071486;28;20560;-70
2021/04/04 11:15:39;;;;;;;5.93;3.25;;;16.10;99.90;;;;;;5071312;28;20202;-70
2021/04/04 11:18:12;;;;;;;4.47;3.78;;;16.10;99.90;;;;;;5071010;28;20209;-71
2021/04/04 11:20:44;;;;;;;4.40;4.00;;;16.10;99.90;;;;;;5071201;28;20206;-70
2021/04/04 11:23:12;;;;;;;4.53;3.17;;;16.00;99.90;;;;;;5071059;28;20233;-71
2021/04/04 11:25:38;;;;;;;6.32;3.78;;;15.70;99.90;;;;;;5070247;28;20213;-74
2021/04/04 11:28:18;;;;;;;4.50;3.40;;;15.50;99.90;;;;;;5069324;28;20209;-72
2021/04/04 11:30:45;;;;;;;3.90;3.60;;;15.30;99.90;;;;;;5067070;28;20206;-72
2021/04/04 11:33:35;;;;;;;5.53;3.15;;;15.80;99.90;;;;;;5064950;28;20213;-70
2021/04/04 11:36:10;;;;;;;5.57;3.88;;;16.30;99.90;;;;;;5058712;28;20206;-71
2021/04/04 11:38:39;;;;;;;6.60;3.83;;;16.10;99.90;;;;;;5070445;28;20681;-73
2021/04/04 11:41:30;;;;;;;4.35;3.88;;;16.10;99.90;;;;;;5070195;28;20223;-70
2021/04/04 11:44:18;;;;;;;5.80;3.63;;;16.20;99.90;;;;;;5064397;28;20231;-70
2021/04/04 11:46:51;;;;;;;4.63;3.78;;;16.20;99.90;;;;;;5070136;28;20214;-69
2021/04/04 11:49:48;;;;;;;11.55;3.70;;;16.00;99.90;;;;;;5070131;28;20225;-69
2021/04/04 11:52:38;;;;;;;7.95;3.47;;;16.10;99.90;;;;;;5067897;28;20206;-70
2021/04/04 11:55:09;;;;;;;5.50;4.13;;;16.80;99.90;;;;;;5068914;28;20285;-72
2021/04/04 11:57:38;;;;;;;7.22;4.30;;;16.80;99.90;;;;;;5069349;28;20207;-71
2021/04/04 12:00:08;;;;;;;5.78;3.33;;;16.70;99.90;;;;;;5070226;28;20202;-70
2021/04/04 12:02:36;;;;;;;5.88;3.17;;;16.20;99.90;;;;;;5070105;28;20226;-72
2021/04/04 12:05:06;;;;;;;3.85;3.38;;;16.50;99.90;;;;;;5069909;28;20561;-72
2021/04/04 12:07:33;;;;;;;4.30;3.15;;;16.50;99.90;;;;;;5069626;28;20202;-70
2021/04/04 12:10:01;;;;;;;4.88;3.53;;;16.50;99.90;;;;;;5069753;28;20202;-71
2021/04/04 12:12:35;;;;;;;7.07;3.25;;;16.80;99.90;;;;;;5070213;28;20636;-69
2021/04/04 12:15:03;;;;;;;4.15;3.75;;;16.80;99.90;;;;;;5069693;28;20197;-70
2021/04/04 12:17:31;;;;;;;6.65;3.50;;;17.10;99.90;;;;;;5069962;28;20217;-70
2021/04/04 12:19:58;;;;;;;5.32;3.20;;;17.10;99.90;;;;;;5070047;28;20662;-71
2021/04/04 12:22:39;;;;;;;4.38;3.45;;;16.90;99.90;;;;;;5070063;28;20226;-72
2021/04/04 12:25:09;;;;;;;6.18;3.60;;;16.90;99.90;;;;;;5067024;28;20203;-74
2021/04/04 12:27:37;;;;;;;4.30;3.25;;;16.90;99.90;;;;;;5069674;28;20213;-70
2021/04/04 12:30:05;;;;;;;7.03;3.58;;;17.00;99.90;;;;;;5069116;28;20210;-71
2021/04/04 12:32:34;;;;;;;3.88;2.72;;;16.90;99.90;;;;;;5067173;28;20199;-69
2021/04/04 12:35:02;;;;;;;4.63;3.75;;;16.90;99.90;;;;;;5069336;28;20655;-71
2021/04/04 12:37:30;;;;;;;5.00;2.78;;;16.90;99.90;;;;;;5069914;28;20666;-71
2021/04/04 12:40:01;;;;;;;3.38;3.08;;;16.90;99.90;;;;;;5068695;28;20677;-73
2021/04/04 12:42:32;;;;;;;5.57;2.88;;;17.10;99.90;;;;;;5067864;28;20257;-71
2021/04/04 12:44:59;;;;;;;3.83;3.42;;;17.10;99.90;;;;;;5068149;28;20206;-70
2021/04/04 12:47:26;;;;;;;4.63;3.63;;;17.40;99.90;;;;;;5068863;28;20214;-70
2021/04/04 12:49:54;;;;;;;3.45;2.97;;;17.40;99.90;;;;;;5069926;28;20210;-71
2021/04/04 12:52:40;;;;;;;4.43;2.90;;;17.60;99.90;;;;;;5070079;28;20673;-70
2021/04/04 12:55:15;;;;;;;6.40;3.95;;;17.50;99.90;;;;;;5068705;28;20228;-70
2021/04/04 12:57:43;;;;;;;4.95;3.42;;;17.70;99.90;;;;;;5069749;28;20214;-71
2021/04/04 13:00:16;;;;;;;6.70;3.10;;;17.40;99.90;;;;;;5070256;28;20212;-70
2021/04/04 13:02:57;;;;;;;5.85;3.55;;;17.50;99.90;;;;;;5069679;28;20226;-69
2021/04/04 13:05:25;;;;;;;4.47;3.28;;;17.80;99.90;;;;;;5069569;28;20213;-70
2021/04/04 13:07:53;;;;;;;8.52;4.40;;;17.60;99.90;;;;;;5069124;28;20203;-70